Date,TemperatureHighF,TemperatureAvgF,TemperatureLowF,DewpointHighF,DewpointAvgF,DewpointLowF,HumidityHigh,HumidityAvg,HumidityLow,PressureMaxIn,PressureMinIn,WindSpeedMaxMPH,WindSpeedAvgMPH,GustSpeedMaxMPH,PrecipitationSumIn
2013-11-1,58,53,51,0,0,0,0,0,100,30.29,29.86,4,1,4,0.01
2013-11-2,52,49,44,0,0,0,0,0,100,29.90,29.51,15,4,15,0.57
2013-11-3,51,44,38,0,0,0,0,0,100,30.12,29.90,7,1,7,0.01
2013-11-4,48,44,38,0,0,0,0,0,100,30.20,30.06,4,1,4,0.03
2013-11-5,53,47,42,0,0,0,0,0,100,30.27,30.02,9,1,9,0.19
2013-11-6,51,46,41,0,0,0,0,0,100,30.33,30.04,4,1,4,0.20
2013-11-7,51,48,47,0,0,0,0,0,100,30.04,29.72,11,2,11,1.20
2013-11-8,52,47,42,0,0,0,0,0,100,30.17,29.98,12,2,12,0.00
2013-11-9,48,44,39,0,0,0,0,0,100,30.16,30.08,7,1,7,0.09
2013-11-10,50,47,45,0,0,0,0,0,100,30.16,30.09,9,2,9,0.01
2013-11-11,53,47,44,0,0,0,0,0,100,30.18,30.02,6,1,6,0.00
2013-11-12,55,50,44,0,0,0,0,0,100,30.39,30.04,6,1,6,0.26
2013-11-13,55,50,48,0,0,0,0,0,100,30.45,30.32,6,1,6,0.02
2013-11-14,50,46,42,0,0,0,0,0,100,30.32,30.07,3,1,3,0.00
2013-11-15,47,44,42,0,0,0,0,0,100,30.08,29.35,14,2,14,0.11
2013-11-16,48,44,39,0,0,0,0,0,100,29.79,29.36,12,3,12,0.00
2013-11-17,48,45,42,0,0,0,0,0,100,29.92,29.78,12,2,12,0.36
2013-11-18,51,48,46,0,0,0,0,0,100,29.92,29.57,8,2,8,0.99
2013-11-19,51,44,38,0,0,0,0,0,100,30.07,29.57,10,2,10,0.09
2013-11-20,42,37,34,0,0,0,0,0,100,30.51,30.07,10,2,10,0.00
2013-11-21,41,37,34,0,0,0,0,0,100,30.66,30.50,7,2,8,0.00
2013-11-22,44,39,36,0,0,0,0,0,100,30.64,30.45,10,2,10,0.00
2013-11-23,46,40,36,0,0,0,0,0,100,30.45,30.21,7,1,7,0.00
2013-11-24,46,40,36,0,0,0,0,0,100,30.27,30.17,5,1,5,0.00
2013-11-25,47,39,35,0,0,0,0,0,100,30.33,30.26,4,1,4,0.01
2013-11-26,46,41,36,0,0,0,0,0,100,30.29,30.11,4,1,4,0.01
2013-11-27,50,44,38,0,0,0,0,0,100,30.11,29.98,5,1,5,0.00
2013-11-28,46,40,36,0,0,0,0,0,100,30.19,30.04,2,1,4,0.01
2013-11-29,46,43,38,0,0,0,0,0,100,30.33,30.19,3,0,3,0.01
2013-11-30,48,46,44,0,0,0,0,0,100,30.34,30.11,9,2,9,0.09